sensor_id;sensor_type;location;lat;lon;timestamp;P1;durP1;ratioP1;P2;durP2;ratioP2
22565;SDS011;11449;51.330;19.378;2023-07-20T00:02:34;7.30;;;2.20;;
22565;SDS011;11449;51.330;19.378;2023-07-20T00:07:41;7.80;;;2.30;;
22565;SDS011;11449;51.330;19.378;2023-07-20T00:12:49;6.40;;;2.80;;
22565;SDS011;11449;51.330;19.378;2023-07-20T00:17:56;4.40;;;2.30;;
22565;SDS011;11449;51.330;19.378;2023-07-20T00:23:04;8.40;;;2.30;;
22565;SDS011;11449;51.330;19.378;2023-07-20T00:28:12;4.70;;;2.50;;
22565;SDS011;11449;51.330;19.378;2023-07-20T00:33:20;7.20;;;2.50;;
22565;SDS011;11449;51.330;19.378;2023-07-20T00:38:27;6.70;;;2.80;;
22565;SDS011;11449;51.330;19.378;2023-07-20T00:43:35;3.50;;;2.70;;
22565;SDS011;11449;51.330;19.378;2023-07-20T00:48:43;4.70;;;2.50;;
22565;SDS011;11449;51.330;19.378;2023-07-20T00:53:51;4.80;;;2.60;;
22565;SDS011;11449;51.330;19.378;2023-07-20T00:58:58;6.00;;;2.70;;
22565;SDS011;11449;51.330;19.378;2023-07-20T01:04:06;4.40;;;2.40;;
22565;SDS011;11449;51.330;19.378;2023-07-20T01:09:16;6.30;;;2.80;;
22565;SDS011;11449;51.330;19.378;2023-07-20T01:14:25;3.30;;;2.20;;
22565;SDS011;11449;51.330;19.378;2023-07-20T01:19:33;5.30;;;2.60;;
22565;SDS011;11449;51.330;19.378;2023-07-20T01:35:34;6.40;;;2.90;;
22565;SDS011;11449;51.330;19.378;2023-07-20T01:40:43;7.00;;;3.20;;
22565;SDS011;11449;51.330;19.378;2023-07-20T01:45:51;8.40;;;3.10;;
22565;SDS011;11449;51.330;19.378;2023-07-20T01:50:59;5.40;;;3.20;;
22565;SDS011;11449;51.330;19.378;2023-07-20T01:56:08;6.00;;;3.60;;
22565;SDS011;11449;51.330;19.378;2023-07-20T02:01:15;4.60;;;2.80;;
22565;SDS011;11449;51.330;19.378;2023-07-20T02:06:25;7.50;;;2.60;;
22565;SDS011;11449;51.330;19.378;2023-07-20T02:11:33;5.10;;;2.80;;
22565;SDS011;11449;51.330;19.378;2023-07-20T02:16:41;5.80;;;3.20;;
22565;SDS011;11449;51.330;19.378;2023-07-20T02:21:48;6.50;;;3.10;;
22565;SDS011;11449;51.330;19.378;2023-07-20T02:26:56;6.50;;;3.40;;
22565;SDS011;11449;51.330;19.378;2023-07-20T02:32:04;7.10;;;4.10;;
22565;SDS011;11449;51.330;19.378;2023-07-20T02:37:12;7.20;;;4.00;;
22565;SDS011;11449;51.330;19.378;2023-07-20T02:42:20;207.90;;;128.70;;
22565;SDS011;11449;51.330;19.378;2023-07-20T02:47:30;224.20;;;138.50;;
22565;SDS011;11449;51.330;19.378;2023-07-20T02:52:38;247.50;;;143.60;;
22565;SDS011;11449;51.330;19.378;2023-07-20T02:57:46;241.80;;;155.50;;
22565;SDS011;11449;51.330;19.378;2023-07-20T03:02:53;278.10;;;165.00;;
22565;SDS011;11449;51.330;19.378;2023-07-20T03:08:04;118.20;;;72.20;;
22565;SDS011;11449;51.330;19.378;2023-07-20T03:13:13;153.70;;;94.90;;
22565;SDS011;11449;51.330;19.378;2023-07-20T03:18:21;319.70;;;210.80;;
22565;SDS011;11449;51.330;19.378;2023-07-20T03:23:30;283.00;;;190.80;;
22565;SDS011;11449;51.330;19.378;2023-07-20T03:28:38;297.10;;;201.90;;
22565;SDS011;11449;51.330;19.378;2023-07-20T03:33:46;306.90;;;198.40;;
22565;SDS011;11449;51.330;19.378;2023-07-20T03:38:49;275.80;;;179.50;;
22565;SDS011;11449;51.330;19.378;2023-07-20T03:43:57;317.80;;;224.30;;
22565;SDS011;11449;51.330;19.378;2023-07-20T03:49:05;382.20;;;282.60;;
22565;SDS011;11449;51.330;19.378;2023-07-20T03:54:13;228.40;;;146.10;;
22565;SDS011;11449;51.330;19.378;2023-07-20T03:59:21;308.60;;;198.60;;
22565;SDS011;11449;51.330;19.378;2023-07-20T04:04:29;253.70;;;151.70;;
22565;SDS011;11449;51.330;19.378;2023-07-20T04:09:32;272.60;;;175.30;;
22565;SDS011;11449;51.330;19.378;2023-07-20T04:14:39;290.90;;;201.40;;
22565;SDS011;11449;51.330;19.378;2023-07-20T04:19:47;318.90;;;199.80;;
22565;SDS011;11449;51.330;19.378;2023-07-20T04:24:55;312.00;;;186.10;;
22565;SDS011;11449;51.330;19.378;2023-07-20T04:30:03;321.30;;;219.60;;
22565;SDS011;11449;51.330;19.378;2023-07-20T04:35:16;266.40;;;178.90;;
22565;SDS011;11449;51.330;19.378;2023-07-20T04:40:24;237.20;;;142.60;;
22565;SDS011;11449;51.330;19.378;2023-07-20T04:45:34;220.50;;;136.50;;
22565;SDS011;11449;51.330;19.378;2023-07-20T04:50:42;297.90;;;197.50;;
22565;SDS011;11449;51.330;19.378;2023-07-20T04:55:50;114.10;;;72.80;;
22565;SDS011;11449;51.330;19.378;2023-07-20T05:01:00;139.60;;;91.30;;
22565;SDS011;11449;51.330;19.378;2023-07-20T05:06:09;399.10;;;361.90;;
22565;SDS011;11449;51.330;19.378;2023-07-20T05:11:18;583.10;;;534.40;;
22565;SDS011;11449;51.330;19.378;2023-07-20T05:16:25;10.30;;;6.50;;
22565;SDS011;11449;51.330;19.378;2023-07-20T05:21:37;11.00;;;6.10;;
22565;SDS011;11449;51.330;19.378;2023-07-20T05:26:45;12.30;;;6.80;;
22565;SDS011;11449;51.330;19.378;2023-07-20T05:31:48;12.10;;;6.50;;
22565;SDS011;11449;51.330;19.378;2023-07-20T05:36:56;10.30;;;6.30;;
22565;SDS011;11449;51.330;19.378;2023-07-20T05:42:03;9.80;;;5.70;;
22565;SDS011;11449;51.330;19.378;2023-07-20T05:47:11;7.70;;;5.20;;
22565;SDS011;11449;51.330;19.378;2023-07-20T05:52:19;10.30;;;6.20;;
22565;SDS011;11449;51.330;19.378;2023-07-20T05:57:27;11.70;;;6.40;;
22565;SDS011;11449;51.330;19.378;2023-07-20T06:02:34;9.50;;;6.00;;
22565;SDS011;11449;51.330;19.378;2023-07-20T06:07:42;9.60;;;5.70;;
22565;SDS011;11449;51.330;19.378;2023-07-20T06:12:50;11.10;;;5.70;;
22565;SDS011;11449;51.330;19.378;2023-07-20T06:17:58;11.30;;;6.00;;
22565;SDS011;11449;51.330;19.378;2023-07-20T06:23:06;10.90;;;6.10;;
22565;SDS011;11449;51.330;19.378;2023-07-20T06:28:13;8.90;;;6.00;;
22565;SDS011;11449;51.330;19.378;2023-07-20T06:33:21;10.20;;;5.60;;
22565;SDS011;11449;51.330;19.378;2023-07-20T06:38:29;9.70;;;5.90;;
22565;SDS011;11449;51.330;19.378;2023-07-20T06:43:37;10.70;;;6.40;;
22565;SDS011;11449;51.330;19.378;2023-07-20T06:48:45;11.80;;;6.40;;
22565;SDS011;11449;51.330;19.378;2023-07-20T06:53:48;9.50;;;6.60;;
22565;SDS011;11449;51.330;19.378;2023-07-20T06:58:55;12.90;;;7.90;;
22565;SDS011;11449;51.330;19.378;2023-07-20T07:04:03;12.30;;;6.30;;
22565;SDS011;11449;51.330;19.378;2023-07-20T07:09:11;10.30;;;6.80;;
22565;SDS011;11449;51.330;19.378;2023-07-20T07:14:19;10.40;;;7.20;;
22565;SDS011;11449;51.330;19.378;2023-07-20T07:19:27;11.50;;;7.00;;
22565;SDS011;11449;51.330;19.378;2023-07-20T07:24:35;10.90;;;7.50;;
22565;SDS011;11449;51.330;19.378;2023-07-20T07:29:43;20.10;;;11.80;;
22565;SDS011;11449;51.330;19.378;2023-07-20T07:34:54;10.60;;;7.60;;
22565;SDS011;11449;51.330;19.378;2023-07-20T07:40:03;12.80;;;7.90;;
22565;SDS011;11449;51.330;19.378;2023-07-20T07:45:11;13.80;;;8.00;;
22565;SDS011;11449;51.330;19.378;2023-07-20T07:50:19;12.20;;;8.20;;
22565;SDS011;11449;51.330;19.378;2023-07-20T07:55:26;9.90;;;7.00;;
22565;SDS011;11449;51.330;19.378;2023-07-20T08:00:35;13.40;;;7.70;;
22565;SDS011;11449;51.330;19.378;2023-07-20T08:05:44;13.90;;;9.00;;
22565;SDS011;11449;51.330;19.378;2023-07-20T08:10:54;15.40;;;8.30;;
22565;SDS011;11449;51.330;19.378;2023-07-20T08:16:02;13.40;;;8.30;;
22565;SDS011;11449;51.330;19.378;2023-07-20T08:21:10;16.10;;;8.10;;
22565;SDS011;11449;51.330;19.378;2023-07-20T08:26:18;14.30;;;8.60;;
22565;SDS011;11449;51.330;19.378;2023-07-20T08:31:26;21.90;;;9.10;;
22565;SDS011;11449;51.330;19.378;2023-07-20T08:36:36;18.30;;;8.50;;
22565;SDS011;11449;51.330;19.378;2023-07-20T08:41:43;22.00;;;8.90;;
22565;SDS011;11449;51.330;19.378;2023-07-20T08:46:51;208.40;;;183.30;;
22565;SDS011;11449;51.330;19.378;2023-07-20T08:51:59;1034.30;;;958.00;;
22565;SDS011;11449;51.330;19.378;2023-07-20T08:57:07;1013.10;;;941.30;;
22565;SDS011;11449;51.330;19.378;2023-07-20T09:02:15;50.70;;;10.00;;
22565;SDS011;11449;51.330;19.378;2023-07-20T09:07:24;10.40;;;7.60;;
22565;SDS011;11449;51.330;19.378;2023-07-20T09:12:39;9.10;;;7.50;;
22565;SDS011;11449;51.330;19.378;2023-07-20T09:17:48;8.70;;;6.70;;
22565;SDS011;11449;51.330;19.378;2023-07-20T09:22:56;7.70;;;6.30;;
22565;SDS011;11449;51.330;19.378;2023-07-20T09:28:04;10.90;;;7.50;;
22565;SDS011;11449;51.330;19.378;2023-07-20T09:33:21;8.70;;;6.40;;
22565;SDS011;11449;51.330;19.378;2023-07-20T09:38:29;13.80;;;7.30;;
22565;SDS011;11449;51.330;19.378;2023-07-20T09:43:37;8.70;;;6.20;;
22565;SDS011;11449;51.330;19.378;2023-07-20T09:48:51;8.00;;;6.20;;
22565;SDS011;11449;51.330;19.378;2023-07-20T09:53:59;10.60;;;5.60;;
22565;SDS011;11449;51.330;19.378;2023-07-20T09:59:07;9.10;;;6.30;;
22565;SDS011;11449;51.330;19.378;2023-07-20T10:04:15;8.50;;;5.60;;
22565;SDS011;11449;51.330;19.378;2023-07-20T10:09:24;9.50;;;5.40;;
22565;SDS011;11449;51.330;19.378;2023-07-20T10:14:31;9.40;;;5.60;;
22565;SDS011;11449;51.330;19.378;2023-07-20T10:19:43;7.70;;;5.30;;
22565;SDS011;11449;51.330;19.378;2023-07-20T10:24:52;8.10;;;4.80;;
22565;SDS011;11449;51.330;19.378;2023-07-20T10:30:01;6.60;;;4.60;;
22565;SDS011;11449;51.330;19.378;2023-07-20T10:35:14;6.60;;;4.90;;
22565;SDS011;11449;51.330;19.378;2023-07-20T10:45:41;7.30;;;5.50;;
22565;SDS011;11449;51.330;19.378;2023-07-20T10:51:10;7.60;;;5.30;;
22565;SDS011;11449;51.330;19.378;2023-07-20T10:56:22;9.40;;;5.10;;
22565;SDS011;11449;51.330;19.378;2023-07-20T11:01:30;8.70;;;4.70;;
22565;SDS011;11449;51.330;19.378;2023-07-20T11:06:42;8.70;;;4.80;;
22565;SDS011;11449;51.330;19.378;2023-07-20T11:11:51;8.00;;;4.50;;
22565;SDS011;11449;51.330;19.378;2023-07-20T11:17:16;7.40;;;4.40;;
22565;SDS011;11449;51.330;19.378;2023-07-20T11:22:27;7.40;;;4.80;;
22565;SDS011;11449;51.330;19.378;2023-07-20T11:27:43;8.10;;;4.90;;
22565;SDS011;11449;51.330;19.378;2023-07-20T11:32:51;9.50;;;4.70;;
22565;SDS011;11449;51.330;19.378;2023-07-20T11:37:58;7.50;;;3.90;;
22565;SDS011;11449;51.330;19.378;2023-07-20T11:43:06;8.10;;;5.10;;
22565;SDS011;11449;51.330;19.378;2023-07-20T11:48:15;7.70;;;4.70;;
22565;SDS011;11449;51.330;19.378;2023-07-20T11:53:24;8.40;;;4.20;;
22565;SDS011;11449;51.330;19.378;2023-07-20T11:58:27;12.10;;;4.40;;
22565;SDS011;11449;51.330;19.378;2023-07-20T12:03:35;12.30;;;4.40;;
22565;SDS011;11449;51.330;19.378;2023-07-20T12:08:43;32.20;;;5.60;;
22565;SDS011;11449;51.330;19.378;2023-07-20T12:13:51;40.10;;;6.80;;
22565;SDS011;11449;51.330;19.378;2023-07-20T12:19:00;63.60;;;9.50;;
22565;SDS011;11449;51.330;19.378;2023-07-20T12:24:08;44.50;;;7.60;;
22565;SDS011;11449;51.330;19.378;2023-07-20T12:29:12;46.60;;;7.20;;
22565;SDS011;11449;51.330;19.378;2023-07-20T12:34:20;48.10;;;6.80;;
22565;SDS011;11449;51.330;19.378;2023-07-20T12:39:28;70.90;;;14.40;;
22565;SDS011;11449;51.330;19.378;2023-07-20T12:44:35;110.20;;;49.40;;
22565;SDS011;11449;51.330;19.378;2023-07-20T12:49:43;141.80;;;64.10;;
22565;SDS011;11449;51.330;19.378;2023-07-20T12:54:54;121.30;;;49.40;;
22565;SDS011;11449;51.330;19.378;2023-07-20T13:00:05;123.80;;;50.40;;
22565;SDS011;11449;51.330;19.378;2023-07-20T13:05:15;74.50;;;38.00;;
22565;SDS011;11449;51.330;19.378;2023-07-20T13:10:23;74.10;;;20.30;;
22565;SDS011;11449;51.330;19.378;2023-07-20T13:15:31;85.90;;;45.20;;
22565;SDS011;11449;51.330;19.378;2023-07-20T13:20:39;253.70;;;171.10;;
22565;SDS011;11449;51.330;19.378;2023-07-20T13:25:48;227.30;;;144.20;;
22565;SDS011;11449;51.330;19.378;2023-07-20T13:30:55;237.10;;;149.10;;
22565;SDS011;11449;51.330;19.378;2023-07-20T13:36:03;301.50;;;213.90;;
22565;SDS011;11449;51.330;19.378;2023-07-20T13:46:20;147.90;;;73.90;;
22565;SDS011;11449;51.330;19.378;2023-07-20T13:51:28;193.80;;;114.40;;
22565;SDS011;11449;51.330;19.378;2023-07-20T13:56:36;101.00;;;41.50;;
22565;SDS011;11449;51.330;19.378;2023-07-20T14:01:44;3.20;;;1.70;;
22565;SDS011;11449;51.330;19.378;2023-07-20T14:06:51;3.10;;;1.80;;
22565;SDS011;11449;51.330;19.378;2023-07-20T14:11:59;5.10;;;2.20;;
22565;SDS011;11449;51.330;19.378;2023-07-20T14:17:07;7.20;;;3.50;;
22565;SDS011;11449;51.330;19.378;2023-07-20T14:22:14;6.90;;;2.90;;
22565;SDS011;11449;51.330;19.378;2023-07-20T14:27:22;7.50;;;3.40;;
22565;SDS011;11449;51.330;19.378;2023-07-20T14:32:30;6.20;;;2.90;;
22565;SDS011;11449;51.330;19.378;2023-07-20T14:37:38;5.40;;;2.70;;
22565;SDS011;11449;51.330;19.378;2023-07-20T14:42:46;7.10;;;2.70;;
22565;SDS011;11449;51.330;19.378;2023-07-20T14:47:54;7.60;;;3.20;;
22565;SDS011;11449;51.330;19.378;2023-07-20T14:53:01;7.30;;;3.10;;
22565;SDS011;11449;51.330;19.378;2023-07-20T14:58:09;7.80;;;2.70;;
22565;SDS011;11449;51.330;19.378;2023-07-20T15:03:17;11.30;;;4.30;;
22565;SDS011;11449;51.330;19.378;2023-07-20T15:08:25;11.30;;;4.10;;
22565;SDS011;11449;51.330;19.378;2023-07-20T15:13:32;14.90;;;4.30;;
22565;SDS011;11449;51.330;19.378;2023-07-20T15:18:40;19.40;;;4.00;;
22565;SDS011;11449;51.330;19.378;2023-07-20T15:23:48;246.10;;;167.40;;
22565;SDS011;11449;51.330;19.378;2023-07-20T15:28:55;402.10;;;311.50;;
22565;SDS011;11449;51.330;19.378;2023-07-20T15:34:03;344.00;;;228.40;;
22565;SDS011;11449;51.330;19.378;2023-07-20T15:39:11;208.40;;;126.90;;
22565;SDS011;11449;51.330;19.378;2023-07-20T15:44:19;322.30;;;223.90;;
22565;SDS011;11449;51.330;19.378;2023-07-20T15:49:27;298.20;;;205.30;;
22565;SDS011;11449;51.330;19.378;2023-07-20T15:54:37;302.50;;;205.80;;
22565;SDS011;11449;51.330;19.378;2023-07-20T15:59:45;330.20;;;220.20;;
22565;SDS011;11449;51.330;19.378;2023-07-20T16:04:53;403.10;;;259.10;;
22565;SDS011;11449;51.330;19.378;2023-07-20T16:10:00;362.40;;;262.80;;
22565;SDS011;11449;51.330;19.378;2023-07-20T16:15:10;290.10;;;181.80;;
22565;SDS011;11449;51.330;19.378;2023-07-20T16:20:18;772.20;;;710.30;;
22565;SDS011;11449;51.330;19.378;2023-07-20T16:25:25;983.70;;;913.30;;
22565;SDS011;11449;51.330;19.378;2023-07-20T16:30:33;532.60;;;489.90;;
22565;SDS011;11449;51.330;19.378;2023-07-20T16:35:42;1063.00;;;982.00;;
22565;SDS011;11449;51.330;19.378;2023-07-20T16:40:49;1062.80;;;982.20;;
22565;SDS011;11449;51.330;19.378;2023-07-20T16:46:07;11.90;;;4.70;;
22565;SDS011;11449;51.330;19.378;2023-07-20T16:51:18;13.10;;;4.40;;
22565;SDS011;11449;51.330;19.378;2023-07-20T16:56:26;17.20;;;4.90;;
22565;SDS011;11449;51.330;19.378;2023-07-20T17:01:34;177.50;;;106.50;;
22565;SDS011;11449;51.330;19.378;2023-07-20T17:06:42;394.50;;;253.20;;
22565;SDS011;11449;51.330;19.378;2023-07-20T17:11:50;385.00;;;244.70;;
22565;SDS011;11449;51.330;19.378;2023-07-20T17:16:57;398.50;;;295.20;;
22565;SDS011;11449;51.330;19.378;2023-07-20T17:22:05;489.70;;;379.50;;
22565;SDS011;11449;51.330;19.378;2023-07-20T17:27:13;469.90;;;332.50;;
22565;SDS011;11449;51.330;19.378;2023-07-20T17:32:20;386.70;;;250.90;;
22565;SDS011;11449;51.330;19.378;2023-07-20T17:37:28;458.30;;;339.60;;
22565;SDS011;11449;51.330;19.378;2023-07-20T17:42:40;991.40;;;920.30;;
22565;SDS011;11449;51.330;19.378;2023-07-20T17:47:47;1020.80;;;947.00;;
22565;SDS011;11449;51.330;19.378;2023-07-20T17:52:56;1044.70;;;968.20;;
22565;SDS011;11449;51.330;19.378;2023-07-20T17:58:03;1064.20;;;982.10;;
22565;SDS011;11449;51.330;19.378;2023-07-20T18:03:11;1076.70;;;991.60;;
22565;SDS011;11449;51.330;19.378;2023-07-20T18:08:19;1072.40;;;990.30;;
22565;SDS011;11449;51.330;19.378;2023-07-20T18:13:27;1060.00;;;978.60;;
22565;SDS011;11449;51.330;19.378;2023-07-20T18:18:35;1068.70;;;985.50;;
22565;SDS011;11449;51.330;19.378;2023-07-20T18:23:43;1070.30;;;988.10;;
22565;SDS011;11449;51.330;19.378;2023-07-20T18:28:50;1069.60;;;987.20;;
22565;SDS011;11449;51.330;19.378;2023-07-20T18:33:53;1096.00;;;997.30;;
22565;SDS011;11449;51.330;19.378;2023-07-20T18:38:57;1075.40;;;988.80;;
22565;SDS011;11449;51.330;19.378;2023-07-20T18:44:04;420.40;;;306.50;;
22565;SDS011;11449;51.330;19.378;2023-07-20T18:49:12;384.50;;;256.50;;
22565;SDS011;11449;51.330;19.378;2023-07-20T18:54:20;362.30;;;213.50;;
22565;SDS011;11449;51.330;19.378;2023-07-20T18:59:28;444.10;;;293.70;;
22565;SDS011;11449;51.330;19.378;2023-07-20T19:04:35;470.00;;;342.00;;
22565;SDS011;11449;51.330;19.378;2023-07-20T19:09:43;469.10;;;322.60;;
22565;SDS011;11449;51.330;19.378;2023-07-20T19:14:51;529.90;;;470.70;;
22565;SDS011;11449;51.330;19.378;2023-07-20T19:19:59;547.60;;;491.40;;
22565;SDS011;11449;51.330;19.378;2023-07-20T19:25:07;450.60;;;305.10;;
22565;SDS011;11449;51.330;19.378;2023-07-20T19:30:17;1022.30;;;947.30;;
22565;SDS011;11449;51.330;19.378;2023-07-20T19:35:20;1060.90;;;980.60;;
22565;SDS011;11449;51.330;19.378;2023-07-20T19:40:27;1061.90;;;979.80;;
22565;SDS011;11449;51.330;19.378;2023-07-20T19:45:30;1058.40;;;977.50;;
22565;SDS011;11449;51.330;19.378;2023-07-20T19:50:38;1065.40;;;984.50;;
22565;SDS011;11449;51.330;19.378;2023-07-20T19:55:45;1053.60;;;975.10;;
22565;SDS011;11449;51.330;19.378;2023-07-20T20:00:53;1035.50;;;960.20;;
22565;SDS011;11449;51.330;19.378;2023-07-20T20:06:01;1054.40;;;974.10;;
22565;SDS011;11449;51.330;19.378;2023-07-20T20:11:09;1051.00;;;972.70;;
22565;SDS011;11449;51.330;19.378;2023-07-20T20:16:16;1048.20;;;968.80;;
22565;SDS011;11449;51.330;19.378;2023-07-20T20:21:25;1055.10;;;974.90;;
22565;SDS011;11449;51.330;19.378;2023-07-20T20:26:33;1044.40;;;967.10;;
22565;SDS011;11449;51.330;19.378;2023-07-20T20:31:42;1034.20;;;958.10;;
22565;SDS011;11449;51.330;19.378;2023-07-20T20:36:50;1012.50;;;939.10;;
22565;SDS011;11449;51.330;19.378;2023-07-20T20:41:58;1049.70;;;972.20;;
22565;SDS011;11449;51.330;19.378;2023-07-20T20:47:07;1012.10;;;939.40;;
22565;SDS011;11449;51.330;19.378;2023-07-20T20:52:15;1049.50;;;970.20;;
22565;SDS011;11449;51.330;19.378;2023-07-20T20:57:24;395.20;;;257.40;;
22565;SDS011;11449;51.330;19.378;2023-07-20T21:02:32;325.80;;;201.10;;
22565;SDS011;11449;51.330;19.378;2023-07-20T21:07:39;324.70;;;221.90;;
22565;SDS011;11449;51.330;19.378;2023-07-20T21:12:47;347.20;;;234.20;;
22565;SDS011;11449;51.330;19.378;2023-07-20T21:17:55;395.90;;;282.00;;
22565;SDS011;11449;51.330;19.378;2023-07-20T21:23:03;410.70;;;262.20;;
22565;SDS011;11449;51.330;19.378;2023-07-20T21:28:11;356.40;;;321.40;;
22565;SDS011;11449;51.330;19.378;2023-07-20T21:33:19;448.00;;;409.40;;
22565;SDS011;11449;51.330;19.378;2023-07-20T21:38:27;403.90;;;366.70;;
22565;SDS011;11449;51.330;19.378;2023-07-20T21:43:35;427.00;;;388.60;;
22565;SDS011;11449;51.330;19.378;2023-07-20T21:48:42;496.30;;;452.80;;
22565;SDS011;11449;51.330;19.378;2023-07-20T21:53:50;394.60;;;359.10;;
22565;SDS011;11449;51.330;19.378;2023-07-20T21:58:58;349.40;;;314.70;;
22565;SDS011;11449;51.330;19.378;2023-07-20T22:04:05;239.90;;;189.30;;
22565;SDS011;11449;51.330;19.378;2023-07-20T22:09:15;192.50;;;160.50;;
22565;SDS011;11449;51.330;19.378;2023-07-20T22:14:23;184.60;;;155.50;;
22565;SDS011;11449;51.330;19.378;2023-07-20T22:19:31;275.00;;;246.50;;
22565;SDS011;11449;51.330;19.378;2023-07-20T22:24:39;121.60;;;80.90;;
22565;SDS011;11449;51.330;19.378;2023-07-20T22:29:47;181.90;;;156.50;;
22565;SDS011;11449;51.330;19.378;2023-07-20T22:34:50;98.00;;;52.50;;
22565;SDS011;11449;51.330;19.378;2023-07-20T22:39:57;143.90;;;110.80;;
22565;SDS011;11449;51.330;19.378;2023-07-20T22:45:07;120.40;;;65.60;;
22565;SDS011;11449;51.330;19.378;2023-07-20T22:50:16;317.50;;;285.10;;
22565;SDS011;11449;51.330;19.378;2023-07-20T22:55:20;543.90;;;493.80;;
22565;SDS011;11449;51.330;19.378;2023-07-20T23:00:28;221.10;;;168.80;;
22565;SDS011;11449;51.330;19.378;2023-07-20T23:05:38;228.00;;;175.40;;
22565;SDS011;11449;51.330;19.378;2023-07-20T23:10:46;232.00;;;171.40;;
22565;SDS011;11449;51.330;19.378;2023-07-20T23:15:54;376.80;;;339.60;;
22565;SDS011;11449;51.330;19.378;2023-07-20T23:21:02;342.60;;;307.10;;
22565;SDS011;11449;51.330;19.378;2023-07-20T23:26:15;202.70;;;165.90;;
22565;SDS011;11449;51.330;19.378;2023-07-20T23:31:23;113.80;;;78.70;;
22565;SDS011;11449;51.330;19.378;2023-07-20T23:36:31;397.80;;;360.00;;
22565;SDS011;11449;51.330;19.378;2023-07-20T23:41:38;255.40;;;227.90;;
22565;SDS011;11449;51.330;19.378;2023-07-20T23:46:46;227.70;;;188.90;;
22565;SDS011;11449;51.330;19.378;2023-07-20T23:51:54;319.90;;;286.10;;
22565;SDS011;11449;51.330;19.378;2023-07-20T23:57:01;178.80;;;120.10;;
